M I D A S
Marine Information and Data Acquisition System
Tripno 1493 of the Zeeleeuw from 2008-05-27 06:58:41 to 2008-05-27 12:51:19
Back to CruiseResearch ActivitiesStationsMapUnderway DataData graphs

EquipmentUnitsComment
TimeDGPSUTC
LatitudeDGPSDM.mWGS84
LongitudeDGPSDM.mWGS84
HeadingGyrodeg 
SOGDGPSknotsSpeed over ground
COGDGPSdegCourse over ground
DepthEcho soundermeters200 kHz
Missing or incorrect values are displayed as -999
Navigation data collected by the RV Zeeleeuw from 2008-05-27 06:55:51 to 2008-05-27 12:55:50
                                                                                    Next 1000 lines
Time Latitude Longitude Heading SOG COG Depth
2008-05-27 06:56:01 51°13.622 2°56.048 124 0.2 238 -999
2008-05-27 06:56:06 51°13.622 2°56.047 123.4 -999 278 -999
2008-05-27 06:56:11 51°13.622 2°56.047 122.6 0.2 204 -999
2008-05-27 06:56:16 51°13.622 2°56.047 121.9 -999 235 -999
2008-05-27 06:56:21 51°13.622 2°56.047 121.1 0.1 206 -999
2008-05-27 06:56:26 51°13.621 2°56.047 120 0.1 129 -999
2008-05-27 06:56:31 51°13.621 2°56.047 118.8 0.1 145 -999
2008-05-27 06:56:36 51°13.621 2°56.048 117.6 0.1 86 -999
2008-05-27 06:56:41 51°13.621 2°56.048 116.5 0.1 84 -999
2008-05-27 06:56:46 51°13.622 2°56.048 115.8 0.2 75 -999
2008-05-27 06:56:51 51°13.622 2°56.049 115.3 0.2 53 -999
2008-05-27 06:56:56 51°13.622 2°56.049 115 0.2 52 -999
2008-05-27 06:57:01 51°13.622 2°56.049 114.8 0.1 353 -999
2008-05-27 06:57:06 51°13.622 2°56.049 115.1 0.1 6 -999
2008-05-27 06:57:11 51°13.622 2°56.049 116.2 0.1 6 -999
2008-05-27 06:57:16 51°13.622 2°56.049 117.7 0.1 28 -999
2008-05-27 06:57:21 51°13.622 2°56.049 118.8 0.1 21 -999
2008-05-27 06:57:26 51°13.622 2°56.049 119.4 -999 216 -999
2008-05-27 06:57:31 51°13.622 2°56.049 119.5 -999 147 -999
2008-05-27 06:57:36 51°13.622 2°56.049 119.3 0.1 168 -999
2008-05-27 06:57:41 51°13.622 2°56.049 118.9 0.1 189 -999
2008-05-27 06:57:46 51°13.622 2°56.049 118.1 -999 192 -999
2008-05-27 06:57:51 51°13.622 2°56.049 117.3 0.1 183 -999
2008-05-27 06:57:56 51°13.622 2°56.049 116.3 0.1 192 -999
2008-05-27 06:58:01 51°13.622 2°56.049 115.3 0.1 186 -999
2008-05-27 06:58:06 51°13.621 2°56.049 114.2 0.1 199 -999
2008-05-27 06:58:11 51°13.621 2°56.049 113.2 0.1 178 -999
2008-05-27 06:58:16 51°13.621 2°56.049 112.3 0.1 199 -999
2008-05-27 06:58:21 51°13.621 2°56.048 111.2 0.1 202 -999
2008-05-27 06:58:26 51°13.621 2°56.048 110.2 0.1 196 -999
2008-05-27 06:58:31 51°13.621 2°56.048 109 0.1 259 -999
2008-05-27 06:58:36 51°13.621 2°56.048 108.3 0.3 278 -999
2008-05-27 06:58:41 51°13.621 2°56.046 107.5 0.8 285 -999
2008-05-27 06:58:46 51°13.622 2°56.043 107.3 1.3 286 -999
2008-05-27 06:58:51 51°13.623 2°56.039 107.4 1.8 290 -999
2008-05-27 06:58:56 51°13.624 2°56.034 108.3 2.3 290 -999
2008-05-27 06:59:01 51°13.625 2°56.029 109.5 2.7 293 -999
2008-05-27 06:59:06 51°13.627 2°56.023 110.9 3 293 -999
2008-05-27 06:59:11 51°13.629 2°56.016 111.7 3.3 296 -999
2008-05-27 06:59:16 51°13.631 2°56.009 111.8 3.6 294 -999
2008-05-27 06:59:21 51°13.633 2°56.002 111.8 3.7 295 -999
2008-05-27 06:59:26 51°13.636 2°55.994 111.8 3.9 294 -999
2008-05-27 06:59:31 51°13.638 2°55.986 112.1 4 295 -999
2008-05-27 06:59:36 51°13.641 2°55.977 112.4 4.1 294 -999
2008-05-27 06:59:41 51°13.643 2°55.969 112.8 4.2 295 -999
2008-05-27 06:59:46 51°13.645 2°55.96 113.3 4.3 295 -999
2008-05-27 06:59:51 51°13.648 2°55.951 114.1 4.5 295 -999
2008-05-27 06:59:56 51°13.651 2°55.942 114.4 4.6 295 -999
2008-05-27 07:00:01 51°13.654 2°55.932 114.6 4.8 295 -999
2008-05-27 07:00:06 51°13.656 2°55.923 114.7 4.8 295 -999
2008-05-27 07:00:11 51°13.659 2°55.913 114.7 4.7 295 -999
2008-05-27 07:00:16 51°13.662 2°55.904 114.7 4.6 295 -999
2008-05-27 07:00:21 51°13.665 2°55.895 114.7 4.5 295 -999
2008-05-27 07:00:26 51°13.667 2°55.886 114.6 4.4 295 -999
2008-05-27 07:00:31 51°13.67 2°55.878 114.2 4.2 294 -999
2008-05-27 07:00:36 51°13.672 2°55.869 113.5 4.1 294 -999
2008-05-27 07:00:41 51°13.674 2°55.861 112.4 4 293 -999
2008-05-27 07:00:46 51°13.676 2°55.853 111.1 3.8 292 -999
2008-05-27 07:00:51 51°13.678 2°55.846 110.2 3.7 292 -999
2008-05-27 07:00:56 51°13.68 2°55.839 109.2 3.5 291 -999
2008-05-27 07:01:01 51°13.682 2°55.832 108.5 3.4 291 -999
2008-05-27 07:01:06 51°13.683 2°55.825 108.1 3.2 290 10.4
2008-05-27 07:01:11 51°13.685 2°55.818 108 3.1 290 10.4
2008-05-27 07:01:16 51°13.686 2°55.812 107.9 2.9 290 10.4
2008-05-27 07:01:21 51°13.688 2°55.807 107.5 2.7 291 10.5
2008-05-27 07:01:26 51°13.689 2°55.802 107.1 2.5 290 10.9
2008-05-27 07:01:31 51°13.69 2°55.797 106.6 2.2 290 11.3
2008-05-27 07:01:35 51°13.691 2°55.793 105.9 2.1 290 11.3
2008-05-27 07:01:40 51°13.691 2°55.789 105.1 1.9 290 11.3
2008-05-27 07:01:45 51°13.692 2°55.786 103.9 1.7 291 11.7
2008-05-27 07:01:51 51°13.693 2°55.782 102.7 1.6 290 12.1
2008-05-27 07:01:55 51°13.694 2°55.78 101.3 1.4 291 12.6
2008-05-27 07:02:00 51°13.694 2°55.777 99.9 1.2 290 4.9
2008-05-27 07:02:05 51°13.695 2°55.775 98.3 1.1 292 -999
2008-05-27 07:02:10 51°13.695 2°55.773 96.3 1 293 4.8
2008-05-27 07:02:15 51°13.696 2°55.771 94.2 0.8 295 4.8
2008-05-27 07:02:20 51°13.696 2°55.77 91.9 0.6 299 -999
2008-05-27 07:02:26 51°13.697 2°55.769 89 0.5 311 -999
2008-05-27 07:02:31 51°13.697 2°55.768 85.9 0.4 324 13.9
2008-05-27 07:02:36 51°13.698 2°55.768 83.4 0.4 344 13.9
2008-05-27 07:02:41 51°13.698 2°55.768 80.8 0.4 1 13.9
2008-05-27 07:02:46 51°13.699 2°55.768 77.2 0.5 14 13.9
2008-05-27 07:02:51 51°13.7 2°55.769 73.5 0.5 22 -999
2008-05-27 07:02:56 51°13.7 2°55.769 68.8 0.5 19 -999
2008-05-27 07:03:01 51°13.701 2°55.769 64.9 0.5 20 13.9
2008-05-27 07:03:06 51°13.702 2°55.77 61.8 0.5 11 14.3
2008-05-27 07:03:11 51°13.702 2°55.77 59.8 0.4 14 -999
2008-05-27 07:03:16 51°13.703 2°55.77 56.7 0.4 4 -999
2008-05-27 07:03:21 51°13.703 2°55.77 54.7 0.4 359 4.7
2008-05-27 07:03:26 51°13.704 2°55.77 52.9 0.4 351 -999
2008-05-27 07:03:31 51°13.704 2°55.77 51 0.4 346 -999
2008-05-27 07:03:36 51°13.705 2°55.769 49.6 0.4 339 -999
2008-05-27 07:03:41 51°13.706 2°55.769 48.6 0.3 328 -999
2008-05-27 07:03:46 51°13.706 2°55.769 47.8 0.3 315 -999
2008-05-27 07:03:51 51°13.706 2°55.768 47.1 0.3 285 13.8
2008-05-27 07:03:56 51°13.706 2°55.767 46.4 0.4 273 -999
2008-05-27 07:04:01 51°13.706 2°55.766 45.9 0.5 260 -999
2008-05-27 07:04:06 51°13.706 2°55.764 45.3 0.7 256 -999
2008-05-27 07:04:11 51°13.705 2°55.763 44.7 0.7 250 -999
2008-05-27 07:04:16 51°13.705 2°55.761 44.2 0.8 247 -999
2008-05-27 07:04:21 51°13.704 2°55.76 43.8 0.8 244 -999
2008-05-27 07:04:26 51°13.704 2°55.758 43.5 0.8 245 14
2008-05-27 07:04:31 51°13.704 2°55.756 42.9 0.8 243 14
2008-05-27 07:04:36 51°13.703 2°55.755 42.4 0.8 241 14.1
2008-05-27 07:04:41 51°13.702 2°55.753 41.7 0.8 239 4.9
2008-05-27 07:04:46 51°13.702 2°55.752 40.9 0.8 232 4.7
2008-05-27 07:04:51 51°13.701 2°55.751 40.1 0.8 233 4.8
2008-05-27 07:04:56 51°13.701 2°55.749 39.4 0.8 230 14.2
2008-05-27 07:05:01 51°13.7 2°55.748 38.6 0.7 228 4.8
2008-05-27 07:05:06 51°13.699 2°55.747 37.9 0.7 225 4.7
2008-05-27 07:05:11 51°13.699 2°55.746 37.3 0.7 223 -999
2008-05-27 07:05:16 51°13.698 2°55.745 36.9 0.7 223 -999
2008-05-27 07:05:21 51°13.697 2°55.744 36.7 0.6 223 14.1
2008-05-27 07:05:26 51°13.696 2°55.743 36.5 0.6 222 14
2008-05-27 07:05:31 51°13.696 2°55.742 36.3 0.6 225 13.9
2008-05-27 07:05:35 51°13.695 2°55.742 36.3 0.6 226 13.9
2008-05-27 07:05:40 51°13.695 2°55.741 36.2 0.6 225 13.9
2008-05-27 07:05:46 51°13.694 2°55.74 35.9 0.5 224 13.8
2008-05-27 07:05:51 51°13.694 2°55.739 35.7 0.4 226 13.9
2008-05-27 07:05:55 51°13.694 2°55.739 35.1 0.2 239 13.8
2008-05-27 07:06:00 51°13.694 2°55.738 34.3 0.2 250 13.8
2008-05-27 07:06:05 51°13.694 2°55.738 33 0.2 249 13.8
2008-05-27 07:06:10 51°13.694 2°55.737 31.1 0.2 249 13.9
2008-05-27 07:06:15 51°13.693 2°55.737 29.7 0.2 243 13.8
2008-05-27 07:06:20 51°13.693 2°55.736 28.5 0.2 233 13.8
2008-05-27 07:06:25 51°13.693 2°55.736 27.7 0.2 244 13.8
2008-05-27 07:06:30 51°13.693 2°55.735 26.8 0.2 236 13.9
2008-05-27 07:06:35 51°13.693 2°55.735 26.1 0.2 246 13.9
2008-05-27 07:06:39 51°13.693 2°55.735 25.7 0.2 238 13.9
2008-05-27 07:06:44 51°13.693 2°55.734 25.3 0.2 248 14
2008-05-27 07:06:49 51°13.693 2°55.734 25.2 0.2 243 14
2008-05-27 07:06:55 51°13.692 2°55.734 24.9 0.2 252 14
2008-05-27 07:06:59 51°13.692 2°55.733 24.8 0.2 244 14.1
2008-05-27 07:07:04 51°13.692 2°55.733 24.7 0.2 246 14.2
2008-05-27 07:07:09 51°13.692 2°55.732 24.7 0.2 245 14.1
2008-05-27 07:07:14 51°13.692 2°55.732 24.7 0.2 250 14.1
2008-05-27 07:07:19 51°13.692 2°55.731 24.7 0.2 253 14.1
2008-05-27 07:07:24 51°13.692 2°55.731 24.6 0.2 258 14.1
2008-05-27 07:07:29 51°13.692 2°55.73 24.5 0.2 262 14
2008-05-27 07:07:34 51°13.692 2°55.73 24.1 0.2 264 13.9
2008-05-27 07:07:39 51°13.692 2°55.729 23.3 0.2 264 13.8
2008-05-27 07:07:43 51°13.692 2°55.729 22.4 0.2 266 13.9
2008-05-27 07:07:48 51°13.692 2°55.728 21.7 0.2 267 13.8
2008-05-27 07:07:53 51°13.692 2°55.728 20.6 0.2 275 13.9
2008-05-27 07:07:58 51°13.692 2°55.727 19.4 0.2 277 13.9
2008-05-27 07:08:03 51°13.692 2°55.727 17.9 0.2 277 13.8
2008-05-27 07:08:08 51°13.692 2°55.726 16.6 0.2 278 13.8
2008-05-27 07:08:13 51°13.692 2°55.725 15.1 0.3 279 13.9
2008-05-27 07:08:18 51°13.692 2°55.725 13.9 0.2 279 13.8
2008-05-27 07:08:23 51°13.692 2°55.724 12.4 0.3 280 13.9
2008-05-27 07:08:28 51°13.692 2°55.724 10.6 0.2 287 13.9
2008-05-27 07:08:32 51°13.692 2°55.723 9.2 0.3 282 13.8
2008-05-27 07:08:38 51°13.692 2°55.723 7.9 0.2 285 13.8
2008-05-27 07:08:43 51°13.693 2°55.722 6.5 0.3 293 13.9
2008-05-27 07:08:48 51°13.693 2°55.721 5 0.3 297 13.9
2008-05-27 07:08:52 51°13.693 2°55.721 3.7 0.3 302 14
2008-05-27 07:08:57 51°13.694 2°55.72 2.7 0.5 331 14.2
2008-05-27 07:09:02 51°13.695 2°55.72 1.1 1.2 347 15
2008-05-27 07:09:07 51°13.698 2°55.719 358.1 2.1 350 -999
2008-05-27 07:09:14 51°13.704 2°55.717 355.6 3 349 -999
2008-05-27 07:09:19 51°13.709 2°55.716 353.6 3.8 350 15.3
2008-05-27 07:09:24 51°13.715 2°55.713 351.5 4.1 345 12.7
2008-05-27 07:09:28 51°13.719 2°55.711 348.4 4.2 345 12.4
2008-05-27 07:09:33 51°13.725 2°55.709 346.5 4.3 342 12.3
2008-05-27 07:09:39 51°13.732 2°55.705 344.6 4.4 342 12.3
2008-05-27 07:09:43 51°13.737 2°55.702 343 4.5 340 12.1
2008-05-27 07:09:48 51°13.743 2°55.698 341.1 4.6 339 11.9
2008-05-27 07:09:52 51°13.747 2°55.695 339.6 3.8 337 11.7
2008-05-27 07:09:58 51°13.755 2°55.69 337.6 4.6 336 11.6
2008-05-27 07:10:03 51°13.761 2°55.685 336 5.4 335 11.4
2008-05-27 07:10:08 51°13.769 2°55.679 335.5 5.8 334 11.5
2008-05-27 07:10:13 51°13.776 2°55.673 335.3 6.1 334 11.6
2008-05-27 07:10:18 51°13.784 2°55.667 335.4 6.2 334 11.5
2008-05-27 07:10:23 51°13.792 2°55.662 335.6 6.2 335 11.5
2008-05-27 07:10:28 51°13.8 2°55.656 336.2 6.2 335 11.5
2008-05-27 07:10:32 51°13.806 2°55.651 336.3 6.1 335 11.5
2008-05-27 07:10:38 51°13.815 2°55.644 336.2 6.1 335 11.6
2008-05-27 07:10:43 51°13.823 2°55.639 335.8 6.1 335 11.6
2008-05-27 07:10:48 51°13.83 2°55.633 335.5 6 334 11.6
2008-05-27 07:10:52 51°13.836 2°55.628 335.3 6 335 11.6
2008-05-27 07:10:57 51°13.844 2°55.622 335.5 6 335 11.7
2008-05-27 07:11:03 51°13.853 2°55.616 336 5.9 335 11.7
2008-05-27 07:11:08 51°13.86 2°55.61 336.2 5.9 335 11.6
2008-05-27 07:11:13 51°13.868 2°55.605 336.3 5.9 335 11.7
2008-05-27 07:11:18 51°13.875 2°55.599 336.3 5.9 335 11.7
2008-05-27 07:11:23 51°13.882 2°55.593 336.4 5.9 335 11.8
2008-05-27 07:11:27 51°13.888 2°55.589 336.5 5.9 335 11.6
2008-05-27 07:11:32 51°13.896 2°55.584 336.5 5.8 335 11.7
2008-05-27 07:11:38 51°13.905 2°55.577 336.7 5.9 336 12.1
2008-05-27 07:11:43 51°13.912 2°55.572 337 5.9 336 -999
2008-05-27 07:11:48 51°13.919 2°55.566 337.4 5.8 336 -999
2008-05-27 07:11:54 51°13.928 2°55.56 337.5 5.8 335 -999
2008-05-27 07:11:59 51°13.935 2°55.555 337 5.8 335 11.7
2008-05-27 07:12:04 51°13.943 2°55.55 336.7 5.8 335 12
2008-05-27 07:12:09 51°13.95 2°55.544 336.7 5.8 336 11.6
2008-05-27 07:12:14 51°13.957 2°55.539 336.9 5.8 335 11.7
2008-05-27 07:12:19 51°13.965 2°55.533 337 5.8 335 11.7
2008-05-27 07:12:23 51°13.971 2°55.529 336.6 5.8 335 11.6
2008-05-27 07:12:28 51°13.978 2°55.524 336 5.9 335 11.7
2008-05-27 07:12:33 51°13.986 2°55.518 335.8 6 335 11.6
2008-05-27 07:12:38 51°13.993 2°55.513 335.8 6 336 11.7
2008-05-27 07:12:43 51°14.001 2°55.507 336.4 6.1 336 11.6
2008-05-27 07:12:48 51°14.009 2°55.502 336.7 6.1 337 11.8
2008-05-27 07:12:53 51°14.017 2°55.497 337 6.1 337 11.6
2008-05-27 07:12:58 51°14.025 2°55.491 337.1 6.2 337 11.6
2008-05-27 07:13:03 51°14.032 2°55.486 337.3 6.2 337 11.7
2008-05-27 07:13:08 51°14.04 2°55.48 337.1 6.2 336 11.7
2008-05-27 07:13:13 51°14.048 2°55.475 336.8 6.2 336 11.6
2008-05-27 07:13:18 51°14.056 2°55.469 336.5 6.2 335 11.7
2008-05-27 07:13:23 51°14.064 2°55.463 336 6.3 335 11.6
2008-05-27 07:13:27 51°14.07 2°55.458 335.4 6.3 335 11.6
2008-05-27 07:13:33 51°14.08 2°55.451 335.2 6.3 335 11.5
2008-05-27 07:13:38 51°14.088 2°55.445 335.9 6.3 336 -999
2008-05-27 07:13:43 51°14.096 2°55.439 336.6 6.4 336 11.7
2008-05-27 07:13:48 51°14.104 2°55.434 336.8 6.4 337 11.6
2008-05-27 07:13:53 51°14.112 2°55.428 337.1 6.4 336 12.1
2008-05-27 07:13:59 51°14.122 2°55.421 336.7 6.4 336 11.6
2008-05-27 07:14:04 51°14.13 2°55.415 335.4 6.4 335 -999
2008-05-27 07:14:09 51°14.138 2°55.408 334.6 6.5 334 -999
2008-05-27 07:14:15 51°14.148 2°55.401 334.3 6.5 334 -999
2008-05-27 07:14:20 51°14.156 2°55.395 334.2 6.5 333 11.6
2008-05-27 07:14:26 51°14.165 2°55.386 333.8 6.5 332 -999
2008-05-27 07:14:31 51°14.173 2°55.379 333.2 6.5 331 11.6
2008-05-27 07:14:36 51°14.181 2°55.372 332.4 6.5 329 11.7
2008-05-27 07:14:41 51°14.189 2°55.365 331.2 6.5 328 11.5
2008-05-27 07:14:46 51°14.196 2°55.357 329.8 6.5 326 11.8
2008-05-27 07:14:51 51°14.203 2°55.348 327.9 6.5 323 12
2008-05-27 07:14:56 51°14.211 2°55.339 324.8 6.5 322 11.6
2008-05-27 07:15:01 51°14.217 2°55.33 322.7 6.5 320 11.9
2008-05-27 07:15:06 51°14.224 2°55.32 320.6 6.5 318 11.9
2008-05-27 07:15:11 51°14.231 2°55.31 318.9 6.6 316 11.6
2008-05-27 07:15:16 51°14.237 2°55.299 317 6.6 315 -999
2008-05-27 07:15:21 51°14.244 2°55.289 315.8 6.8 315 12
2008-05-27 07:15:26 51°14.251 2°55.277 314.9 7.2 314 11.6
2008-05-27 07:15:31 51°14.258 2°55.265 314.4 7.6 314 11.5
2008-05-27 07:15:36 51°14.265 2°55.253 314.2 7.8 314 11.6
2008-05-27 07:15:40 51°14.271 2°55.242 314.7 8.1 312 12.2
2008-05-27 07:15:45 51°14.28 2°55.228 314 8.5 312 11.7
2008-05-27 07:15:50 51°14.288 2°55.214 312.9 8.7 311 11.4
2008-05-27 07:15:55 51°14.296 2°55.198 311.7 8.9 310 11.6
2008-05-27 07:16:00 51°14.304 2°55.183 311.3 9.2 311 11.5
2008-05-27 07:16:05 51°14.313 2°55.167 311.2 9.5 310 11.5
2008-05-27 07:16:10 51°14.321 2°55.151 311.4 9.6 311 11.5
2008-05-27 07:16:15 51°14.33 2°55.134 311.3 9.7 308 11.5
2008-05-27 07:16:20 51°14.338 2°55.117 310 9.9 308 12
2008-05-27 07:16:25 51°14.347 2°55.1 309.2 10 310 11.4
2008-05-27 07:16:31 51°14.358 2°55.08 311 10.2 312 11.7
2008-05-27 07:16:35 51°14.366 2°55.066 312.1 10.6 311 -999
2008-05-27 07:16:41 51°14.379 2°55.046 314.1 10.9 317 12.1
2008-05-27 07:16:46 51°14.391 2°55.029 317.1 11.1 317 11.5
2008-05-27 07:16:51 51°14.402 2°55.012 318.1 11.4 317 12
2008-05-27 07:16:56 51°14.414 2°54.995 318.3 11.5 319 11.9
2008-05-27 07:17:00 51°14.424 2°54.982 319.3 11.6 320 11.8
2008-05-27 07:17:06 51°14.439 2°54.962 320.4 11.7 320 11.9
2008-05-27 07:17:11 51°14.452 2°54.945 320.9 11.9 320 11.8
2008-05-27 07:17:15 51°14.463 2°54.931 320.8 12.1 321 11.7
2008-05-27 07:17:20 51°14.476 2°54.915 321 12.1 322 11.5
2008-05-27 07:17:25 51°14.489 2°54.899 321.5 12.1 324 11.2
2008-05-27 07:17:30 51°14.503 2°54.884 322.9 12.1 324 11.2
2008-05-27 07:17:35 51°14.517 2°54.869 323.8 12.1 327 11.2
2008-05-27 07:17:40 51°14.531 2°54.855 325.1 12.1 329 11.1
2008-05-27 07:17:45 51°14.545 2°54.842 326.5 12.2 329 11.1
2008-05-27 07:17:50 51°14.56 2°54.829 327.4 12 331 11.3
2008-05-27 07:17:55 51°14.575 2°54.816 328.7 12 331 11.1
2008-05-27 07:18:00 51°14.59 2°54.803 329.8 12.1 332 11.2
2008-05-27 07:18:04 51°14.602 2°54.793 330 12.1 332 11.1
2008-05-27 07:18:09 51°14.616 2°54.78 329.7 12 331 11.2
2008-05-27 07:18:15 51°14.634 2°54.764 329.5 12.1 331 11
2008-05-27 07:18:19 51°14.646 2°54.754 328.9 12.1 330 11
2008-05-27 07:18:24 51°14.66 2°54.739 327.6 12 327 11
2008-05-27 07:18:29 51°14.674 2°54.724 326 12.1 327 10.8
2008-05-27 07:18:34 51°14.688 2°54.709 325.1 11.9 326 11
2008-05-27 07:18:39 51°14.701 2°54.695 324.6 11.8 326 11.1
2008-05-27 07:18:44 51°14.715 2°54.68 324.1 11.9 326 11
2008-05-27 07:18:49 51°14.729 2°54.665 323.7 12 326 10.8
2008-05-27 07:18:54 51°14.742 2°54.649 323.6 11.9 325 11.1
2008-05-27 07:18:59 51°14.756 2°54.633 323.2 11.8 325 10.9
2008-05-27 07:19:03 51°14.767 2°54.621 322.5 12 324 11
2008-05-27 07:19:08 51°14.78 2°54.606 322.9 12 325 10.9
2008-05-27 07:19:13 51°14.794 2°54.591 323.1 11.9 326 10.7
2008-05-27 07:19:18 51°14.808 2°54.576 324 12 327 10.8
2008-05-27 07:19:23 51°14.822 2°54.561 325 12.1 327 10.8
2008-05-27 07:19:28 51°14.836 2°54.547 325.7 12.1 329 10.8
2008-05-27 07:19:33 51°14.851 2°54.534 326.6 12.1 329 10.9
2008-05-27 07:19:38 51°14.865 2°54.52 327.2 12.2 329 10.7
2008-05-27 07:19:43 51°14.88 2°54.507 328 12.3 330 10.8
2008-05-27 07:19:48 51°14.895 2°54.494 328.1 12.2 331 10.9
2008-05-27 07:19:53 51°14.91 2°54.481 328.7 12.2 331 10.6
2008-05-27 07:19:58 51°14.925 2°54.468 328.9 12.2 332 10.5
2008-05-27 07:20:03 51°14.94 2°54.455 328.9 12.2 331 10.4
2008-05-27 07:20:08 51°14.954 2°54.442 328.5 12.3 330 10.3
2008-05-27 07:20:12 51°14.966 2°54.431 327.7 12.2 329 10.1
2008-05-27 07:20:18 51°14.983 2°54.414 327.3 12.1 329 9.9
2008-05-27 07:20:22 51°14.995 2°54.404 327.2 12.1 329 9.8
2008-05-27 07:20:28 51°15.012 2°54.387 326.5 12.1 328 9.8
2008-05-27 07:20:32 51°15.023 2°54.375 326.1 12.1 329 9.7
2008-05-27 07:20:38 51°15.04 2°54.358 325.6 12.1 328 9.7
2008-05-27 07:20:43 51°15.054 2°54.344 325.5 12.1 329 9.6
2008-05-27 07:20:47 51°15.066 2°54.332 325.7 12.1 329 9.7
2008-05-27 07:20:52 51°15.081 2°54.319 326.3 12.2 329 9.9
2008-05-27 07:20:58 51°15.097 2°54.302 326.3 12.1 329 9.6
2008-05-27 07:21:03 51°15.112 2°54.288 326 11.9 328 9.5
2008-05-27 07:21:07 51°15.123 2°54.276 325.8 12 327 9.9
2008-05-27 07:21:12 51°15.137 2°54.262 325.8 12.1 328 10.1
2008-05-27 07:21:18 51°15.155 2°54.246 326.4 12.2 329 10.4
2008-05-27 07:21:23 51°15.169 2°54.232 327.6 12.1 329 10.3
2008-05-27 07:21:27 51°15.181 2°54.222 328.7 12.2 331 10.4
2008-05-27 07:21:32 51°15.195 2°54.21 329.5 12.1 332 10.2
2008-05-27 07:21:38 51°15.213 2°54.194 330.1 12.2 331 10.4
2008-05-27 07:21:43 51°15.228 2°54.182 330.1 12.2 332 10.5
2008-05-27 07:21:48 51°15.243 2°54.169 329.9 12.1 331 10.3
2008-05-27 07:21:52 51°15.255 2°54.159 329.8 12.1 331 10.4
2008-05-27 07:21:58 51°15.272 2°54.143 329.6 12.1 331 10.4
2008-05-27 07:22:03 51°15.287 2°54.13 329.2 12.2 330 10.4
2008-05-27 07:22:07 51°15.298 2°54.119 329.2 12 330 10.6
2008-05-27 07:22:12 51°15.313 2°54.105 329.4 12 330 10.7
2008-05-27 07:22:18 51°15.331 2°54.09 329.3 12.1 331 10.8
2008-05-27 07:22:23 51°15.346 2°54.077 330 12.2 331 10.8
2008-05-27 07:22:28 51°15.36 2°54.064 330.1 12.2 331 10.8
2008-05-27 07:22:32 51°15.372 2°54.054 330.3 12.3 332 10.9
2008-05-27 07:22:38 51°15.39 2°54.039 331.1 12.3 332 10.8
2008-05-27 07:22:43 51°15.405 2°54.026 331.6 12.3 332 11.1
2008-05-27 07:22:47 51°15.417 2°54.016 331.8 12.1 332 10.9
2008-05-27 07:22:52 51°15.432 2°54.003 331.4 12.1 332 10.9
2008-05-27 07:22:58 51°15.45 2°53.988 331.9 12.2 333 11.2
2008-05-27 07:23:03 51°15.465 2°53.976 332 12.2 332 11
2008-05-27 07:23:07 51°15.477 2°53.966 332.3 12.2 333 11.2
2008-05-27 07:23:12 51°15.492 2°53.954 332.7 12.3 333 11.5
2008-05-27 07:23:18 51°15.51 2°53.939 332.5 12.3 332 11.3
2008-05-27 07:23:23 51°15.526 2°53.927 332.3 12.3 334 11.3
2008-05-27 07:23:27 51°15.537 2°53.917 332.3 12.2 332 11.5
2008-05-27 07:23:32 51°15.553 2°53.904 332.3 12.2 333 11.7
2008-05-27 07:23:38 51°15.571 2°53.89 332.2 12.2 333 11.3
2008-05-27 07:23:43 51°15.586 2°53.878 332.3 12.2 334 11.4
2008-05-27 07:23:48 51°15.601 2°53.865 332.1 12.2 332 11.5
2008-05-27 07:23:52 51°15.613 2°53.855 332.1 12.2 333 11.6
2008-05-27 07:23:57 51°15.628 2°53.843 332.1 12.3 333 11.9
2008-05-27 07:24:03 51°15.647 2°53.828 332.1 12.3 333 12
2008-05-27 07:24:08 51°15.662 2°53.816 332.1 12.4 333 11.8
2008-05-27 07:24:12 51°15.674 2°53.806 332.2 12.3 333 11.8
2008-05-27 07:24:18 51°15.692 2°53.79 331.6 12.3 332 11.8
2008-05-27 07:24:23 51°15.707 2°53.777 331 12.4 331 11.8
2008-05-27 07:24:27 51°15.719 2°53.767 330 12.4 331 12
2008-05-27 07:24:32 51°15.734 2°53.753 329.4 12.3 330 11.9
2008-05-27 07:24:38 51°15.752 2°53.738 329.5 12.3 331 11.9
2008-05-27 07:24:43 51°15.766 2°53.724 329.4 12.2 331 11.8
2008-05-27 07:24:48 51°15.782 2°53.711 329.3 12.2 331 11.9
2008-05-27 07:24:52 51°15.794 2°53.701 329.5 12.2 331 12.1
2008-05-27 07:24:58 51°15.812 2°53.686 330.1 12.1 332 11.9
2008-05-27 07:25:03 51°15.827 2°53.673 330.5 12.1 332 12.1
2008-05-27 07:25:07 51°15.839 2°53.664 330.5 12.2 332 12.4
2008-05-27 07:25:13 51°15.857 2°53.649 330.9 12.2 333 12.1
2008-05-27 07:25:18 51°15.872 2°53.637 330.8 12.1 333 12.1
2008-05-27 07:25:23 51°15.887 2°53.624 330.7 12.2 333 12.3
2008-05-27 07:25:27 51°15.899 2°53.615 331 12.3 333 12.2
2008-05-27 07:25:32 51°15.914 2°53.602 330.7 12.2 333 12.1
2008-05-27 07:25:38 51°15.932 2°53.588 331.3 12 333 12.2
2008-05-27 07:25:43 51°15.947 2°53.575 331.1 11.7 332 -999
2008-05-27 07:25:48 51°15.961 2°53.563 330.5 11.7 332 12.2
2008-05-27 07:25:52 51°15.973 2°53.554 330.6 11.8 333 11.9
2008-05-27 07:25:58 51°15.991 2°53.539 331.4 11.7 332 12.2
2008-05-27 07:26:03 51°16.006 2°53.527 330.6 11.9 332 12.4
2008-05-27 07:26:07 51°16.017 2°53.517 330.1 12 331 12.5
2008-05-27 07:26:12 51°16.032 2°53.504 329.7 12.1 332 12.4
2008-05-27 07:26:17 51°16.047 2°53.491 329.4 12.2 331 12.6
2008-05-27 07:26:22 51°16.062 2°53.478 329.4 12.3 332 12.8
2008-05-27 07:26:28 51°16.08 2°53.463 330.2 12.3 332 12.8
2008-05-27 07:26:32 51°16.092 2°53.453 330.5 12.1 332 12.6
2008-05-27 07:26:37 51°16.107 2°53.441 330.9 12.2 333 12.6
2008-05-27 07:26:43 51°16.125 2°53.426 331.2 12.3 332 12.7
2008-05-27 07:26:48 51°16.14 2°53.414 330.9 12.3 333 12.7
2008-05-27 07:26:53 51°16.155 2°53.401 331.1 12.3 333 12.8
2008-05-27 07:26:58 51°16.17 2°53.389 330.9 12.2 332 12.7
2008-05-27 07:27:03 51°16.185 2°53.376 330 12.3 331 12.9
2008-05-27 07:27:08 51°16.2 2°53.363 329.6 12.4 331 12.8
2008-05-27 07:27:12 51°16.212 2°53.351 328.8 12.3 331 12.6
2008-05-27 07:27:17 51°16.227 2°53.337 328.8 12.3 331 12.6
2008-05-27 07:27:23 51°16.245 2°53.322 329.1 12.2 332 12.6
2008-05-27 07:27:28 51°16.26 2°53.31 329.5 12.1 332 12.5
2008-05-27 07:27:33 51°16.275 2°53.297 329.2 12.3 332 12.7
2008-05-27 07:27:38 51°16.29 2°53.285 329.9 12.3 333 12.7
2008-05-27 07:27:43 51°16.304 2°53.273 330.2 12.1 332 12.5
2008-05-27 07:27:47 51°16.316 2°53.263 329.5 12 331 12.6
2008-05-27 07:27:52 51°16.331 2°53.25 329.4 12.1 332 12.8
2008-05-27 07:27:58 51°16.349 2°53.234 329.1 12.1 331 12.7
2008-05-27 07:28:03 51°16.363 2°53.221 329.3 12.1 331 13
2008-05-27 07:28:07 51°16.375 2°53.211 329.4 12.1 331 13
2008-05-27 07:28:12 51°16.39 2°53.198 329.2 12.3 332 13.1
2008-05-27 07:28:17 51°16.405 2°53.186 330.4 12.1 332 12.8
2008-05-27 07:28:23 51°16.422 2°53.171 330.3 12.1 332 12.7
2008-05-27 07:28:28 51°16.437 2°53.16 330.4 12.2 334 12.6
2008-05-27 07:28:32 51°16.45 2°53.149 330.9 12.2 333 12.5
2008-05-27 07:28:37 51°16.465 2°53.137 330.9 12.1 333 12.6
2008-05-27 07:28:43 51°16.483 2°53.122 330.9 12.1 332 12.4
2008-05-27 07:28:48 51°16.498 2°53.109 331 12.1 333 12.7
2008-05-27 07:28:52 51°16.51 2°53.099 331.4 12.1 332 12.8
2008-05-27 07:28:58 51°16.528 2°53.085 331.4 12.1 332 12.9
2008-05-27 07:29:03 51°16.543 2°53.073 331.5 12.2 332 12.9
2008-05-27 07:29:08 51°16.557 2°53.061 331 12.1 333 12.6
2008-05-27 07:29:12 51°16.569 2°53.051 330.9 12.1 332 12.7
2008-05-27 07:29:17 51°16.584 2°53.039 331.1 12.2 333 12.6
2008-05-27 07:29:23 51°16.602 2°53.024 331 12.3 332 12.8
2008-05-27 07:29:28 51°16.617 2°53.011 331 12.2 332 12.6
2008-05-27 07:29:33 51°16.632 2°52.998 331.1 11.8 332 12.5
2008-05-27 07:29:38 51°16.647 2°52.985 330.3 11.9 331 12.6
2008-05-27 07:29:43 51°16.662 2°52.973 330.9 11.9 333 12.6
2008-05-27 07:29:47 51°16.673 2°52.963 331.2 12 332 12.4
2008-05-27 07:29:53 51°16.691 2°52.948 330.9 12.1 332 12.2
2008-05-27 07:29:58 51°16.705 2°52.935 330.6 12.1 331 12
2008-05-27 07:30:03 51°16.72 2°52.922 330.1 12.2 331 12.1
2008-05-27 07:30:07 51°16.732 2°52.912 330 12.2 331 11.8
2008-05-27 07:30:12 51°16.747 2°52.899 330.1 12.2 332 11.6
2008-05-27 07:30:18 51°16.765 2°52.883 330.3 12.2 330 11.5
2008-05-27 07:30:23 51°16.779 2°52.87 330.2 12.2 331 11.1
2008-05-27 07:30:28 51°16.795 2°52.857 329.9 12.2 332 10.7
2008-05-27 07:30:32 51°16.807 2°52.847 330.4 12.3 333 10.6
2008-05-27 07:30:38 51°16.824 2°52.832 331.1 12.1 333 10.3
2008-05-27 07:30:43 51°16.84 2°52.82 331.6 12.2 333 10.5
2008-05-27 07:30:47 51°16.852 2°52.811 331.5 12.1 333 10.3
2008-05-27 07:30:52 51°16.867 2°52.799 331 12.1 332 10.1
2008-05-27 07:30:58 51°16.884 2°52.784 330.6 12 332 10
2008-05-27 07:31:02 51°16.896 2°52.774 330.6 12 333 10.1
2008-05-27 07:31:08 51°16.915 2°52.759 330.6 12.2 333 10.5
2008-05-27 07:31:12 51°16.927 2°52.749 330.9 12.2 333 10.7
2008-05-27 07:31:17 51°16.942 2°52.737 331 12.2 333 10.6
2008-05-27 07:31:22 51°16.957 2°52.725 331 12.3 333 11
2008-05-27 07:31:28 51°16.975 2°52.71 330.9 12.2 333 11.2
2008-05-27 07:31:32 51°16.987 2°52.7 330.5 12.2 333 11.1
2008-05-27 07:31:38 51°17.005 2°52.686 330.7 12.2 333 10.8
2008-05-27 07:31:43 51°17.02 2°52.673 330.9 12.2 334 11.1
2008-05-27 07:31:47 51°17.033 2°52.663 330.8 12.4 332 10.9
2008-05-27 07:31:53 51°17.05 2°52.648 330.6 12.1 332 10.8
2008-05-27 07:31:58 51°17.065 2°52.636 330.1 12 333 10.8
2008-05-27 07:32:03 51°17.08 2°52.623 330.6 12.1 332 10.7
2008-05-27 07:32:07 51°17.092 2°52.614 330.9 12.2 333 10.9
2008-05-27 07:32:12 51°17.107 2°52.601 330.9 12.2 332 10.7
2008-05-27 07:32:18 51°17.126 2°52.588 332.5 12.3 336 11
2008-05-27 07:32:23 51°17.141 2°52.576 333.7 12.2 335 11
2008-05-27 07:32:27 51°17.153 2°52.568 334.7 12.1 338 10.7
2008-05-27 07:32:32 51°17.169 2°52.558 336 12.3 338 11.2
2008-05-27 07:32:38 51°17.188 2°52.547 336.8 12.3 340 11
2008-05-27 07:32:43 51°17.204 2°52.537 337.4 12.2 341 11
2008-05-27 07:32:47 51°17.218 2°52.532 340.7 12.3 346 10.9
2008-05-27 07:32:52 51°17.234 2°52.525 342.5 12.2 344 10.8
2008-05-27 07:32:58 51°17.254 2°52.517 343.9 12.1 346 11.2
2008-05-27 07:33:03 51°17.27 2°52.511 344.9 12.2 345 10.9
2008-05-27 07:33:07 51°17.283 2°52.507 346.7 12.3 349 11.2
2008-05-27 07:33:12 51°17.3 2°52.501 347.8 12.3 348 11.1
2008-05-27 07:33:17 51°17.317 2°52.498 349.8 12.3 352 11.4
2008-05-27 07:33:23 51°17.337 2°52.493 351.2 12.3 351 11.2
2008-05-27 07:33:28 51°17.355 2°52.49 352.6 12.4 354 11.4
2008-05-27 07:33:32 51°17.368 2°52.488 353.5 12.5 354 11.5
2008-05-27 07:33:38 51°17.389 2°52.485 354.7 12.5 356 11.7
2008-05-27 07:33:43 51°17.406 2°52.483 355.4 12.4 355 11.1
2008-05-27 07:33:47 51°17.42 2°52.483 356.3 12.4 358 11.2
2008-05-27 07:33:52 51°17.437 2°52.481 356.6 12.5 356 11.5
2008-05-27 07:33:58 51°17.458 2°52.48 357 12.5 358 11.4
2008-05-27 07:34:03 51°17.475 2°52.478 357.2 12.6 357 11.5
2008-05-27 07:34:07 51°17.489 2°52.478 357.5 12.7 359 11.7
2008-05-27 07:34:12 51°17.507 2°52.477 357.8 12.5 358 11.3
2008-05-27 07:34:18 51°17.527 2°52.476 357.6 12.3 358 11.5
2008-05-27 07:34:23 51°17.545 2°52.474 357.1 12.5 357 11.5
2008-05-27 07:34:27 51°17.558 2°52.473 356.8 12.5 357 11.4
2008-05-27 07:34:32 51°17.576 2°52.472 357.2 12.5 357 11.2
2008-05-27 07:34:38 51°17.596 2°52.469 356.3 12.6 355 11.6
2008-05-27 07:34:43 51°17.613 2°52.468 355.6 12.4 357 11.3
2008-05-27 07:34:48 51°17.631 2°52.465 355.3 12.5 355 11.2
2008-05-27 07:34:52 51°17.645 2°52.462 354.9 12.5 355 11.4
2008-05-27 07:34:58 51°17.665 2°52.459 354.3 12.5 355 11.7
2008-05-27 07:35:03 51°17.682 2°52.457 353.9 12.4 355 11.5
2008-05-27 07:35:07 51°17.696 2°52.455 353.6 12.4 355 11.4
2008-05-27 07:35:12 51°17.713 2°52.452 354.5 12.3 355 11.2
2008-05-27 07:35:18 51°17.733 2°52.451 355.6 12.4 357 11.7
2008-05-27 07:35:23 51°17.75 2°52.449 356.1 12.3 356 11.4
2008-05-27 07:35:28 51°17.767 2°52.448 356.7 12.4 359 11.5
2008-05-27 07:35:32 51°17.781 2°52.446 357.1 12.3 357 11.5
2008-05-27 07:35:37 51°17.798 2°52.446 357.2 12.3 359 11.4
2008-05-27 07:35:43 51°17.819 2°52.445 357.9 12.6 358 11.5
2008-05-27 07:35:48 51°17.836 2°52.444 357.9 12.4 359 11.7
2008-05-27 07:35:53 51°17.852 2°52.443 358.6 12 359 11.4
2008-05-27 07:35:58 51°17.869 2°52.444 359.6 12 1 11.4
2008-05-27 07:36:03 51°17.886 2°52.445 0.9 12.2 2 11.4
2008-05-27 07:36:08 51°17.903 2°52.446 1.4 12.2 2 11.5
2008-05-27 07:36:12 51°17.916 2°52.447 1.7 12.3 2 11.5
2008-05-27 07:36:18 51°17.937 2°52.449 2.6 12.4 3 11.8
2008-05-27 07:36:23 51°17.954 2°52.45 2.5 12.4 1 11.6
2008-05-27 07:36:28 51°17.972 2°52.451 2.1 12.4 2 11.7
2008-05-27 07:36:33 51°17.989 2°52.452 2.1 12.5 2 11.9
2008-05-27 07:36:38 51°18.006 2°52.454 2.1 12.5 3 11.7
2008-05-27 07:36:43 51°18.023 2°52.457 4.3 12.3 6 11.5
2008-05-27 07:36:48 51°18.039 2°52.462 8.2 12.3 11 11.6
2008-05-27 07:36:53 51°18.056 2°52.468 10.5 12.3 11 11.7
2008-05-27 07:36:58 51°18.073 2°52.474 13 12.5 14 11.7
2008-05-27 07:37:03 51°18.09 2°52.481 13.8 12.4 14 11.8
2008-05-27 07:37:08 51°18.107 2°52.489 16.2 12.4 17 11.8
2008-05-27 07:37:12 51°18.12 2°52.494 16.8 12.4 16 12
2008-05-27 07:37:18 51°18.139 2°52.504 17.3 12.3 18 11.9
2008-05-27 07:37:23 51°18.155 2°52.513 18.4 12.3 18 11.5
2008-05-27 07:37:28 51°18.172 2°52.521 18.1 12.2 17 11.6
2008-05-27 07:37:32 51°18.184 2°52.528 18.5 12.1 19 11.6
2008-05-27 07:37:37 51°18.201 2°52.536 18.9 12.2 19 11.8
2008-05-27 07:37:43 51°18.22 2°52.547 18.8 12.3 18 11.9
2008-05-27 07:37:48 51°18.236 2°52.555 18.9 12.2 18 11.8
2008-05-27 07:37:52 51°18.249 2°52.563 19.5 12.5 19 11.8
2008-05-27 07:37:58 51°18.269 2°52.573 19.4 12.6 17 11.9
2008-05-27 07:38:03 51°18.285 2°52.583 20.3 12.3 20 11.7
2008-05-27 07:38:08 51°18.302 2°52.591 20.1 12.3 18 12.1
2008-05-27 07:38:12 51°18.315 2°52.598 19.7 12.4 19 11.9
2008-05-27 07:38:18 51°18.333 2°52.609 20.3 12.1 19 11.6
2008-05-27 07:38:23 51°18.349 2°52.617 19.4 11.7 17 11.6
2008-05-27 07:38:28 51°18.365 2°52.626 19.2 11.6 19 12
2008-05-27 07:38:33 51°18.381 2°52.634 18.8 11.8 18 11.9
2008-05-27 07:38:38 51°18.396 2°52.642 18.8 11.9 19 11.8
2008-05-27 07:38:43 51°18.412 2°52.65 19.7 12.1 18 11.9
2008-05-27 07:38:47 51°18.425 2°52.657 19 12.3 18 12.3
2008-05-27 07:38:52 51°18.441 2°52.666 19.2 12.2 19 12.3
2008-05-27 07:38:58 51°18.461 2°52.675 18.5 12.3 16 12.1
2008-05-27 07:39:03 51°18.477 2°52.684 18.1 12.2 18 12.2
2008-05-27 07:39:07 51°18.49 2°52.689 18 12.4 16 12.4
2008-05-27 07:39:12 51°18.506 2°52.698 17.9 12.4 18 12.5
2008-05-27 07:39:18 51°18.526 2°52.707 17.9 12.3 16 12.4
2008-05-27 07:39:23 51°18.543 2°52.716 18 12.4 18 12.3
2008-05-27 07:39:28 51°18.559 2°52.724 17.8 12.4 17 12.3
2008-05-27 07:39:32 51°18.572 2°52.731 18.3 12.4 18 12.6
2008-05-27 07:39:38 51°18.592 2°52.743 20.2 12.3 20 12.1
2008-05-27 07:39:43 51°18.608 2°52.752 21 12.5 20 12.3
2008-05-27 07:39:47 51°18.621 2°52.76 21.1 12.4 20 12.1
2008-05-27 07:39:52 51°18.637 2°52.77 22 12.4 21 12.1
2008-05-27 07:39:58 51°18.656 2°52.783 23.1 12.4 23 12.2
2008-05-27 07:40:03 51°18.672 2°52.793 23.4 12.3 22 12.2
2008-05-27 07:40:08 51°18.688 2°52.804 23.9 12.4 23 12.5
2008-05-27 07:40:12 51°18.701 2°52.813 24.2 12.4 23 12.4
2008-05-27 07:40:17 51°18.716 2°52.824 24.4 12.5 23 12.6
2008-05-27 07:40:23 51°18.736 2°52.837 24.6 12.7 24 12.7
2008-05-27 07:40:28 51°18.752 2°52.848 24 12.5 23 12.6
2008-05-27 07:40:33 51°18.768 2°52.858 24.1 12.4 22 12.6
2008-05-27 07:40:38 51°18.784 2°52.869 23.5 12.5 22 12.5
2008-05-27 07:40:43 51°18.8 2°52.879 23.6 12.6 22 12.6
2008-05-27 07:40:48 51°18.816 2°52.89 23.7 12.6 23 12.7
2008-05-27 07:40:52 51°18.829 2°52.9 24.5 12.7 24 12.9
2008-05-27 07:40:58 51°18.849 2°52.912 23.5 12.7 23 13.1
2008-05-27 07:41:03 51°18.864 2°52.923 23.6 12.5 24 12.9
2008-05-27 07:41:08 51°18.88 2°52.933 23.9 12.5 22 12.8
2008-05-27 07:41:13 51°18.896 2°52.944 22.9 12.5 23 12.7
2008-05-27 07:41:18 51°18.912 2°52.954 23.3 12.3 23 12.6
2008-05-27 07:41:23 51°18.928 2°52.965 23.1 12.4 23 12.7
2008-05-27 07:41:27 51°18.941 2°52.973 22.7 12.5 22 13.1
2008-05-27 07:41:32 51°18.957 2°52.983 22.5 12.5 22 13.2
2008-05-27 07:41:38 51°18.976 2°52.995 22 12.4 21 12.9
2008-05-27 07:41:43 51°18.992 2°53.005 22.6 12.3 22 12.9
2008-05-27 07:41:47 51°19.005 2°53.013 22.8 12.4 22 13.2
2008-05-27 07:41:52 51°19.021 2°53.024 22.8 12.5 22 13.5
2008-05-27 07:41:57 51°19.036 2°53.034 23.1 12.2 22 13.2
2008-05-27 07:42:03 51°19.054 2°53.046 23.5 12 22 12.7
2008-05-27 07:42:08 51°19.07 2°53.056 23.4 12 21 13
2008-05-27 07:42:12 51°19.083 2°53.064 22.9 12.1 21 12.9
2008-05-27 07:42:17 51°19.099 2°53.074 22.7 12.1 22 13.1
2008-05-27 07:42:23 51°19.117 2°53.086 22.8 12.1 21 13
2008-05-27 07:42:28 51°19.134 2°53.094 22.6 12.1 21 13.1
2008-05-27 07:42:32 51°19.146 2°53.101 22.3 12.1 21 13.3
2008-05-27 07:42:38 51°19.166 2°53.113 22.4 12.2 21 13.5
2008-05-27 07:42:43 51°19.181 2°53.124 22.8 12.2 22 13.3
2008-05-27 07:42:48 51°19.197 2°53.133 22.8 12.2 21 13.3
2008-05-27 07:42:52 51°19.209 2°53.143 23.4 12.2 24 13.7
2008-05-27 07:42:58 51°19.228 2°53.155 24 12.2 22 13.6
2008-05-27 07:43:03 51°19.244 2°53.167 24.6 12.2 25 13.5
2008-05-27 07:43:08 51°19.259 2°53.177 24.5 12.1 22 13.5
2008-05-27 07:43:12 51°19.271 2°53.186 24.5 12 24 13.6
2008-05-27 07:43:18 51°19.29 2°53.199 24.6 12 23 13.6
2008-05-27 07:43:23 51°19.305 2°53.21 24.7 12 24 13.8
2008-05-27 07:43:27 51°19.317 2°53.219 25.1 12 24 13.6
2008-05-27 07:43:32 51°19.333 2°53.229 24.7 12.1 23 13.6
2008-05-27 07:43:38 51°19.351 2°53.243 25.3 12 25 13.5
2008-05-27 07:43:43 51°19.366 2°53.254 26.1 11.9 24 13.7
2008-05-27 07:43:47 51°19.378 2°53.263 26.2 12 26 14
2008-05-27 07:43:52 51°19.393 2°53.275 26.4 12.1 25 13.8
2008-05-27 07:43:58 51°19.412 2°53.288 25.7 12.1 24 14
2008-05-27 07:44:03 51°19.427 2°53.3 25.5 12.1 24 14.1
2008-05-27 07:44:07 51°19.44 2°53.308 25.3 12.1 24 13.7
2008-05-27 07:44:12 51°19.455 2°53.32 25 12.1 25 14.2
2008-05-27 07:44:17 51°19.47 2°53.331 26 12.1 27 14.5
2008-05-27 07:44:23 51°19.488 2°53.344 26.5 12 25 14.3
2008-05-27 07:44:28 51°19.503 2°53.355 26.4 12.1 25 14.4
2008-05-27 07:44:32 51°19.515 2°53.364 25.9 12.1 24 14.3
2008-05-27 07:44:38 51°19.533 2°53.378 26.2 12.1 25 14.1
2008-05-27 07:44:43 51°19.549 2°53.389 26.1 12.3 24 14.6
2008-05-27 07:44:47 51°19.561 2°53.399 26.8 12.3 27 14.5
2008-05-27 07:44:52 51°19.577 2°53.41 26.9 12.3 25 14.4
2008-05-27 07:44:58 51°19.595 2°53.425 26.8 12.4 26 14.6
2008-05-27 07:45:03 51°19.611 2°53.436 26.8 12.4 25 14.7
2008-05-27 07:45:08 51°19.626 2°53.447 25.7 12.4 24 14.5
2008-05-27 07:45:12 51°19.639 2°53.456 24.8 12.4 23 14.8
2008-05-27 07:45:18 51°19.658 2°53.469 24.1 12.5 23 15
2008-05-27 07:45:23 51°19.674 2°53.479 24.6 12.3 22 14.8
2008-05-27 07:45:28 51°19.689 2°53.49 24.1 12.1 23 14.4
2008-05-27 07:45:32 51°19.702 2°53.498 24 12.1 22 14.5
2008-05-27 07:45:38 51°19.721 2°53.511 23.5 12.2 22 14.6
2008-05-27 07:45:43 51°19.736 2°53.521 23.3 12.1 22 14.3
2008-05-27 07:45:47 51°19.749 2°53.529 23.9 12.1 22 14.6
2008-05-27 07:45:52 51°19.764 2°53.54 23.9 12.1 23 14.6
2008-05-27 07:45:58 51°19.784 2°53.553 23.7 12.2 22 15
2008-05-27 07:46:03 51°19.8 2°53.563 23.7 12.4 22 15.1
2008-05-27 07:46:07 51°19.812 2°53.571 23.7 12.4 22 15.1
2008-05-27 07:46:12 51°19.828 2°53.582 23.9 12.6 23 15.5
2008-05-27 07:46:18 51°19.848 2°53.595 24.5 12.6 23 15.6
2008-05-27 07:46:23 51°19.864 2°53.606 24.3 12.6 22 15.6
2008-05-27 07:46:28 51°19.88 2°53.617 24.2 12.7 24 15.6
2008-05-27 07:46:32 51°19.893 2°53.625 24.1 12.6 22 15.4
2008-05-27 07:46:37 51°19.909 2°53.636 23.5 12.5 23 15.7
2008-05-27 07:46:43 51°19.928 2°53.649 23.3 12.5 22 15.6
2008-05-27 07:46:48 51°19.944 2°53.66 23.7 12.6 23 15.6
2008-05-27 07:46:52 51°19.957 2°53.668 23.7 12.5 23 15.7
2008-05-27 07:46:58 51°19.976 2°53.68 24.5 12.3 23 15.5
2008-05-27 07:47:03 51°19.992 2°53.691 24 12.3 22 15.7
2008-05-27 07:47:08 51°20.008 2°53.701 23.9 12.3 22 15.9
2008-05-27 07:47:12 51°20.021 2°53.709 23.5 12.3 23 15.7
2008-05-27 07:47:18 51°20.04 2°53.723 23.8 12.3 23 15.9
2008-05-27 07:47:23 51°20.055 2°53.733 23.7 12.5 22 16.1
2008-05-27 07:47:28 51°20.071 2°53.743 23.9 12.4 23 15.9
2008-05-27 07:47:32 51°20.084 2°53.752 23.8 12.2 23 15.8
2008-05-27 07:47:38 51°20.103 2°53.765 24.2 12.3 24 16.1
2008-05-27 07:47:43 51°20.118 2°53.775 24 12.3 22 16
2008-05-27 07:47:48 51°20.134 2°53.787 23.9 12.2 23 16.5
2008-05-27 07:47:53 51°20.15 2°53.797 24.1 12.3 22 16.4
2008-05-27 07:47:58 51°20.166 2°53.808 24.6 12.4 24 16.4
2008-05-27 07:48:03 51°20.181 2°53.819 24.6 12.1 23 16
2008-05-27 07:48:07 51°20.193 2°53.828 24.6 12.1 25 16.5
2008-05-27 07:48:12 51°20.209 2°53.839 25.3 12.1 24 16.4
2008-05-27 07:48:18 51°20.228 2°53.853 25.3 12.3 24 16.5
2008-05-27 07:48:23 51°20.243 2°53.864 25.3 12.5 24 16.8
2008-05-27 07:48:28 51°20.259 2°53.875 25.7 12.4 24 16.8
2008-05-27 07:48:32 51°20.271 2°53.885 26 12.1 26 16.3
2008-05-27 07:48:38 51°20.289 2°53.898 25.9 12 24 16
2008-05-27 07:48:43 51°20.304 2°53.909 25.9 12 25 16.1
2008-05-27 07:48:48 51°20.319 2°53.92 25.6 12.2 24 16.5
2008-05-27 07:48:52 51°20.332 2°53.929 25.3 12.3 24 16.4
2008-05-27 07:48:58 51°20.35 2°53.943 25.8 12.3 25 16.7
2008-05-27 07:49:03 51°20.366 2°53.954 25.5 12.4 24 16.8
2008-05-27 07:49:07 51°20.379 2°53.964 25.7 12.5 25 16.9
2008-05-27 07:49:12 51°20.395 2°53.975 25.9 12.4 24 16.7
2008-05-27 07:49:18 51°20.413 2°53.988 25.5 12.2 24 16.8
2008-05-27 07:49:23 51°20.429 2°54 25.1 12.3 24 17
2008-05-27 07:49:28 51°20.445 2°54.01 24.6 12.4 23 16.6
2008-05-27 07:49:32 51°20.457 2°54.019 24.7 12.2 23 16.6
2008-05-27 07:49:38 51°20.477 2°54.032 24.4 12.4 22 16.8
2008-05-27 07:49:43 51°20.492 2°54.043 24.2 12.3 24 16.5
2008-05-27 07:49:48 51°20.508 2°54.054 23.9 12.5 23 17
2008-05-27 07:49:52 51°20.52 2°54.064 24.1 12.2 25 16.7
2008-05-27 07:49:58 51°20.539 2°54.076 24.1 12.2 21 16.7
2008-05-27 07:50:03 51°20.555 2°54.087 23.7 12.2 24 16.5
2008-05-27 07:50:07 51°20.568 2°54.096 24.2 12.3 23 17
2008-05-27 07:50:13 51°20.587 2°54.11 24.3 12.3 24 17
2008-05-27 07:50:18 51°20.603 2°54.12 24.6 12.4 23 17
2008-05-27 07:50:23 51°20.619 2°54.131 24.2 12.5 23 16.8
2008-05-27 07:50:28 51°20.635 2°54.142 23.9 12.6 23 17
2008-05-27 07:50:33 51°20.651 2°54.153 24.2 12.7 23 17.1
2008-05-27 07:50:38 51°20.667 2°54.163 23.5 12.7 22 17.2
2008-05-27 07:50:43 51°20.683 2°54.174 23.5 12.6 22 17.1
2008-05-27 07:50:48 51°20.7 2°54.185 23.2 12.6 23 17.2
2008-05-27 07:50:52 51°20.713 2°54.193 23.1 12.6 22 17.1
2008-05-27 07:50:58 51°20.732 2°54.207 23.2 12.4 23 17
2008-05-27 07:51:03 51°20.748 2°54.217 23.7 12.5 23 17.1
2008-05-27 07:51:08 51°20.763 2°54.228 24.4 12.5 23 16.9
2008-05-27 07:51:12 51°20.776 2°54.238 24.7 12.4 24 16.9
2008-05-27 07:51:17 51°20.792 2°54.249 25.1 12.6 24 17.1
2008-05-27 07:51:23 51°20.811 2°54.263 25.1 12.7 24 17.1
2008-05-27 07:51:28 51°20.828 2°54.274 25.2 12.8 24 17.1
2008-05-27 07:51:32 51°20.841 2°54.284 25.3 12.6 25 17
2008-05-27 07:51:38 51°20.859 2°54.298 25.5 12.6 24 16.9
2008-05-27 07:51:43 51°20.875 2°54.31 26 12.6 24 17.3
2008-05-27 07:51:48 51°20.891 2°54.321 25.4 12.7 24 17.1
2008-05-27 07:51:52 51°20.904 2°54.331 25.2 12.8 24 17.3
2008-05-27 07:51:58 51°20.923 2°54.344 24.6 12.6 24 17.1
2008-05-27 07:52:03 51°20.939 2°54.355 24.6 12.6 23 17.1
2008-05-27 07:52:08 51°20.955 2°54.367 24.3 12.5 24 17
2008-05-27 07:52:13 51°20.971 2°54.378 24 12.5 23 17.4
2008-05-27 07:52:18 51°20.988 2°54.389 24 12.6 23 17.4
2008-05-27 07:52:23 51°21.003 2°54.4 23.9 12.6 23 17.3
2008-05-27 07:52:27 51°21.016 2°54.409 24.2 12.5 24 17.1
2008-05-27 07:52:32 51°21.032 2°54.42 24.2 12.5 25 17.2
2008-05-27 07:52:38 51°21.051 2°54.434 24.8 12.3 24 16.7
2008-05-27 07:52:43 51°21.066 2°54.445 24.5 12.1 24 16.9
2008-05-27 07:52:48 51°21.082 2°54.456 24.8 12.3 23 16.8
2008-05-27 07:52:52 51°21.095 2°54.465 24.3 12.4 22 17
2008-05-27 07:52:58 51°21.114 2°54.479 24.5 12.6 25 17.1
2008-05-27 07:53:03 51°21.131 2°54.489 23.6 12.7 22 17.4
2008-05-27 07:53:07 51°21.144 2°54.498 23.9 12.7 24 17.4
2008-05-27 07:53:12 51°21.16 2°54.509 23.8 12.7 23 17.6
2008-05-27 07:53:18 51°21.179 2°54.523 24.1 12.8 24 17.8
2008-05-27 07:53:23 51°21.195 2°54.534 24.1 12.7 23 17.7
2008-05-27 07:53:28 51°21.211 2°54.546 24 12.5 24 17.4
2008-05-27 07:53:32 51°21.225 2°54.555 24.4 12.6 23 17.5
2008-05-27 07:53:37 51°21.241 2°54.566 24.1 12.7 23 17.5
2008-05-27 07:53:43 51°21.261 2°54.579 23.9 12.8 23 17.7
2008-05-27 07:53:48 51°21.277 2°54.59 23.9 12.8 24 17.7
2008-05-27 07:53:52 51°21.289 2°54.6 24.5 12.7 24 17.5
2008-05-27 07:53:58 51°21.309 2°54.614 24.6 12.7 24 17.6
2008-05-27 07:54:03 51°21.325 2°54.625 25 12.7 24 17.3
2008-05-27 07:54:08 51°21.341 2°54.637 24.7 12.8 24 17.8
2008-05-27 07:54:12 51°21.354 2°54.646 24.6 12.6 24 17.5
2008-05-27 07:54:18 51°21.373 2°54.66 24.7 12.6 26 17.8
2008-05-27 07:54:23 51°21.389 2°54.671 24.4 12.6 24 17.8
2008-05-27 07:54:28 51°21.405 2°54.682 23.9 12.6 24 18
2008-05-27 07:54:32 51°21.417 2°54.691 24.2 12.6 24 17.8
2008-05-27 07:54:38 51°21.436 2°54.704 24.4 12.3 24 17.5
2008-05-27 07:54:43 51°21.452 2°54.715 24.4 12.4 24 17.4
2008-05-27 07:54:47 51°21.465 2°54.724 23.7 12.5 23 17.3
2008-05-27 07:54:52 51°21.48 2°54.735 23.9 12.4 25 17.4
2008-05-27 07:54:58 51°21.5 2°54.749 24.1 12.5 23 17.9
2008-05-27 07:55:03 51°21.516 2°54.76 23.9 12.6 23 17.7
2008-05-27 07:55:08 51°21.532 2°54.771 23.8 12.6 23 17.5
2008-05-27 07:55:13 51°21.549 2°54.783 23.8 12.8 24 18.1
2008-05-27 07:55:18 51°21.564 2°54.794 24.5 12.8 24 18.1
2008-05-27 07:55:23 51°21.58 2°54.806 24.5 12.6 24 17.8
2008-05-27 07:55:28 51°21.596 2°54.817 24.4 12.5 24 18
2008-05-27 07:55:32 51°21.609 2°54.826 24 12.7 23 18
2008-05-27 07:55:38 51°21.629 2°54.839 23.8 12.9 23 18
2008-05-27 07:55:43 51°21.646 2°54.851 24.1 13 24 18.2
2008-05-27 07:55:48 51°21.662 2°54.862 23.9 13.1 22 18.2
2008-05-27 07:55:52 51°21.676 2°54.872 23.7 13.2 24 18.2
2008-05-27 07:55:58 51°21.696 2°54.884 23.1 13.1 22 18
2008-05-27 07:56:03 51°21.712 2°54.895 23.1 13.2 22 18.2
2008-05-27 07:56:08 51°21.729 2°54.906 22.9 12.9 22 17.6
2008-05-27 07:56:12 51°21.741 2°54.915 23 12.4 24 17.3
2008-05-27 07:56:18 51°21.76 2°54.928 23.1 12.4 23 17.3
2008-05-27 07:56:23 51°21.776 2°54.939 23.8 12.5 23 17.7
2008-05-27 07:56:28 51°21.792 2°54.95 23.7 12.7 23 18
2008-05-27 07:56:33 51°21.808 2°54.961 24 12.7 24 18.2
2008-05-27 07:56:38 51°21.824 2°54.973 23.7 12.7 24 18.1
2008-05-27 07:56:43 51°21.841 2°54.984 24.4 12.9 24 18.1
2008-05-27 07:56:48 51°21.857 2°54.996 24.3 12.9 24 18.3
2008-05-27 07:56:53 51°21.873 2°55.008 24 12.8 24 18.1
2008-05-27 07:56:58 51°21.889 2°55.02 24.3 12.8 26 18.3
2008-05-27 07:57:03 51°21.906 2°55.032 24.5 12.8 24 18.3
2008-05-27 07:57:07 51°21.918 2°55.041 24.6 12.7 25 18.4
2008-05-27 07:57:12 51°21.934 2°55.052 24.9 12.6 25 18
2008-05-27 07:57:18 51°21.953 2°55.066 24.8 12.8 24 18.1
2008-05-27 07:57:23 51°21.97 2°55.077 24.3 12.9 24 18.3
2008-05-27 07:57:27 51°21.983 2°55.087 24.2 13 24 18.5
2008-05-27 07:57:33 51°22.002 2°55.101 24.3 13 24 18.5
2008-05-27 07:57:38 51°22.019 2°55.112 24.5 12.9 24 18.5
2008-05-27 07:57:43 51°22.035 2°55.124 24.6 13 24 18.6
2008-05-27 07:57:48 51°22.052 2°55.136 24.4 13.1 24 18.7
2008-05-27 07:57:52 51°22.065 2°55.146 24.4 13.1 25 18.8
2008-05-27 07:57:58 51°22.085 2°55.16 25 13.2 24 18.9
2008-05-27 07:58:03 51°22.101 2°55.173 24.8 13.2 25 19.1
2008-05-27 07:58:08 51°22.118 2°55.185 25.3 13 26 19.4
2008-05-27 07:58:12 51°22.13 2°55.195 25.3 12.9 26 19.3
2008-05-27 07:58:18 51°22.149 2°55.208 25 12.6 24 18.9
2008-05-27 07:58:23 51°22.165 2°55.219 24.2 12.6 24 18.9
2008-05-27 07:58:28 51°22.181 2°55.23 24.5 12.6 24 18.8
2008-05-27 07:58:32 51°22.194 2°55.239 24.4 12.6 24 19.2
2008-05-27 07:58:38 51°22.213 2°55.253 24.2 12.8 24 19.4
2008-05-27 07:58:43 51°22.229 2°55.265 24.6 12.6 24 19
2008-05-27 07:58:48 51°22.245 2°55.277 25 12.6 26 19.5
2008-05-27 07:58:52 51°22.258 2°55.286 25.5 12.5 24 19.2
2008-05-27 07:58:58 51°22.277 2°55.299 25 12.6 24 19.3
2008-05-27 07:59:03 51°22.293 2°55.311 24.7 12.7 25 19.5
2008-05-27 07:59:08 51°22.309 2°55.322 24.8 12.7 24 19.6
2008-05-27 07:59:13 51°22.326 2°55.334 24.6 12.9 24 20
2008-05-27 07:59:18 51°22.342 2°55.345 24.4 12.8 24 20
2008-05-27 07:59:23 51°22.357 2°55.356 24.4 12.7 24 19.6
2008-05-27 07:59:28 51°22.373 2°55.368 24.6 12.6 24 19.4
2008-05-27 07:59:33 51°22.388 2°55.378 24.4 12.4 24 18.9
2008-05-27 07:59:38 51°22.404 2°55.389 24.3 12.1 23 18.6
2008-05-27 07:59:43 51°22.419 2°55.4 24.2 12.4 23 18.8
2008-05-27 07:59:47 51°22.432 2°55.409 23.9 12.5 24 18.8
2008-05-27 07:59:52 51°22.448 2°55.419 24.1 12.4 23 19
2008-05-27 07:59:58 51°22.467 2°55.433 24.2 12.6 24 19.3
2008-05-27 08:00:03 51°22.483 2°55.444 24 12.6 23 19.2
2008-05-27 08:00:08 51°22.499 2°55.455 24.7 12.6 24 19.5
2008-05-27 08:00:12 51°22.512 2°55.464 25 12.7 24 19.4
2008-05-27 08:00:18 51°22.531 2°55.478 24.7 12.7 25 19.1
2008-05-27 08:00:23 51°22.547 2°55.489 25 12.7 23 19
2008-05-27 08:00:28 51°22.563 2°55.501 25.2 12.9 25 19.1
2008-05-27 08:00:32 51°22.576 2°55.51 25.4 12.7 24 19
2008-05-27 08:00:38 51°22.596 2°55.524 25.4 12.6 25 19
2008-05-27 08:00:43 51°22.612 2°55.535 24.9 12.7 22 19.1
2008-05-27 08:00:48 51°22.628 2°55.546 24.2 12.8 24 19.1
2008-05-27 08:00:52 51°22.641 2°55.554 24.1 12.7 22 18.7
2008-05-27 08:00:58 51°22.661 2°55.568 23.9 12.7 23 18.9
2008-05-27 08:01:03 51°22.677 2°55.578 23.5 12.8 22 19.2
2008-05-27 08:01:08 51°22.693 2°55.589 23.1 12.7 23 18.9
2008-05-27 08:01:12 51°22.706 2°55.598 23.3 12.6 23 18.8
2008-05-27 08:01:18 51°22.725 2°55.61 23.1 12.6 22 18.8
2008-05-27 08:01:23 51°22.742 2°55.621 23 12.8 22 18.9
2008-05-27 08:01:28 51°22.758 2°55.632 23.3 12.4 23 18.7
2008-05-27 08:01:33 51°22.773 2°55.644 23.4 12.4 24 18.8
2008-05-27 08:01:38 51°22.79 2°55.654 24.3 12.6 23 19
2008-05-27 08:01:43 51°22.806 2°55.666 23.8 12.5 23 18.8
2008-05-27 08:01:48 51°22.822 2°55.676 23.8 12.6 22 19.1
2008-05-27 08:01:52 51°22.835 2°55.685 23.3 12.7 22 19
2008-05-27 08:01:58 51°22.854 2°55.699 23.5 12.8 23 19.2
2008-05-27 08:02:03 51°22.871 2°55.71 23.3 12.6 24 19.4
2008-05-27 08:02:07 51°22.883 2°55.719 23.9 12.6 24 19.4
2008-05-27 08:02:12 51°22.899 2°55.73 24.3 12.5 23 19.3
2008-05-27 08:02:18 51°22.918 2°55.743 24 12.4 24 19
2008-05-27 08:02:23 51°22.934 2°55.755 23.6 12.5 24 19.2
2008-05-27 08:02:28 51°22.95 2°55.766 23.9 12.6 24 19.6
2008-05-27 08:02:32 51°22.962 2°55.775 24.8 12.5 26 19.7
2008-05-27 08:02:38 51°22.981 2°55.788 25.2 12.4 25 19.5
2008-05-27 08:02:43 51°22.997 2°55.8 25.7 12.6 24 19.5
2008-05-27 08:02:48 51°23.013 2°55.812 25.2 12.6 25 19.5
2008-05-27 08:02:52 51°23.025 2°55.821 25.3 12.6 25 19.6
2008-05-27 08:02:58 51°23.045 2°55.835 24.7 12.6 24 19.5
2008-05-27 08:03:03 51°23.061 2°55.846 24.4 12.6 24 19.5
2008-05-27 08:03:08 51°23.077 2°55.858 23.8 12.5 24 19.8
2008-05-27 08:03:12 51°23.09 2°55.867 24.1 12.7 24 19.8
2008-05-27 08:03:18 51°23.109 2°55.88 24.1 12.7 23 19.5
2008-05-27 08:03:23 51°23.125 2°55.892 24.8 12.6 25 19.7
2008-05-27 08:03:28 51°23.141 2°55.903 24.7 12.4 24 19.8
2008-05-27 08:03:32 51°23.154 2°55.912 24.7 12.6 24 20
2008-05-27 08:03:38 51°23.173 2°55.926 25.2 12.7 25 20.3
2008-05-27 08:03:43 51°23.189 2°55.937 24.5 12.7 24 20.2
2008-05-27 08:03:48 51°23.205 2°55.949 24.7 12.8 25 20.4
2008-05-27 08:03:53 51°23.22 2°55.96 25.1 12.7 24 20.2
2008-05-27 08:03:58 51°23.237 2°55.972 24.9 12.6 24 20.5
2008-05-27 08:04:03 51°23.253 2°55.983 25.3 12.8 25 20.5
2008-05-27 08:04:08 51°23.268 2°55.995 25.3 12.7 25 20.4
2008-05-27 08:04:12 51°23.281 2°56.005 25.8 12.7 26 20.4
2008-05-27 08:04:18 51°23.301 2°56.019 25.3 12.9 24 20.4
2008-05-27 08:04:23 51°23.317 2°56.031 24.7 12.7 25 20.3
2008-05-27 08:04:28 51°23.333 2°56.043 25 12.7 25 20.2
2008-05-27 08:04:32 51°23.346 2°56.052 25.2 12.7 24 19.9
2008-05-27 08:04:38 51°23.365 2°56.066 24.8 12.8 24 20
2008-05-27 08:04:43 51°23.382 2°56.076 24.5 12.7 23 19.8
2008-05-27 08:04:48 51°23.398 2°56.088 24 12.7 23 19.7
2008-05-27 08:04:52 51°23.411 2°56.097 23.3 12.6 23 19.6
2008-05-27 08:04:58 51°23.431 2°56.109 23.2 12.5 22 19.9
2008-05-27 08:05:03 51°23.447 2°56.12 23.1 12.7 22 20
2008-05-27 08:05:08 51°23.463 2°56.131 23.2 12.6 22 19.6
2008-05-27 08:05:12 51°23.476 2°56.139 23.6 12.7 22 19.2
2008-05-27 08:05:18 51°23.496 2°56.152 23.6 12.8 22 19
2008-05-27 08:05:23 51°23.512 2°56.163 23.1 12.7 22 20.2
2008-05-27 08:05:28 51°23.528 2°56.174 23.7 12.8 23 19.4
2008-05-27 08:05:32 51°23.541 2°56.183 23.8 12.5 23 17.4
2008-05-27 08:05:38 51°23.559 2°56.196 24.4 12.3 24 18
2008-05-27 08:05:43 51°23.575 2°56.206 24.3 12.3 23 19.2
2008-05-27 08:05:47 51°23.588 2°56.215 24.6 12.5 23 19
2008-05-27 08:05:52 51°23.604 2°56.225 24 12.6 21 18.1
2008-05-27 08:05:58 51°23.623 2°56.238 24.2 12.8 23 16.9
2008-05-27 08:06:03 51°23.639 2°56.249 23.9 12.7 22 18.7
2008-05-27 08:06:08 51°23.655 2°56.26 24.3 12.5 25 18.8
2008-05-27 08:06:13 51°23.671 2°56.27 24.9 12.5 22 17.3
2008-05-27 08:06:18 51°23.686 2°56.281 24.5 12.4 25 18.7
2008-05-27 08:06:23 51°23.702 2°56.292 24.9 12.4 23 18.6
2008-05-27 08:06:27 51°23.715 2°56.301 24.5 12.3 24 17
2008-05-27 08:06:32 51°23.73 2°56.312 24.7 12.5 24 13.3
2008-05-27 08:06:38 51°23.749 2°56.325 24.6 12.5 25 15.6
2008-05-27 08:06:43 51°23.765 2°56.336 24.5 12.5 23 16.5
2008-05-27 08:06:48 51°23.781 2°56.348 24.8 12.6 24 17.2
2008-05-27 08:06:52 51°23.794 2°56.357 24.9 12.6 23 16.6
2008-05-27 08:06:58 51°23.814 2°56.37 24.6 12.6 23 15.4
2008-05-27 08:07:03 51°23.83 2°56.381 24.4 12.6 23 16.8
2008-05-27 08:07:08 51°23.846 2°56.392 24 12.6 22 17.3
2008-05-27 08:07:12 51°23.859 2°56.401 24.3 12.6 23 16.2
2008-05-27 08:07:18 51°23.879 2°56.414 24.2 12.8 23 15.5
2008-05-27 08:07:23 51°23.895 2°56.425 24.3 12.6 24 15.5
2008-05-27 08:07:28 51°23.91 2°56.437 24.7 12.3 25 17.2
2008-05-27 08:07:33 51°23.926 2°56.448 25.4 12.4 23 17.2
2008-05-27 08:07:38 51°23.942 2°56.459 25.3 12.5 24 15.9
2008-05-27 08:07:43 51°23.958 2°56.47 24.6 12.6 23 16.3
2008-05-27 08:07:48 51°23.974 2°56.481 24.4 12.6 23 17.2
2008-05-27 08:07:52 51°23.987 2°56.49 24.4 12.8 23 16
2008-05-27 08:07:58 51°24.007 2°56.503 23.9 12.7 22 16.7
2008-05-27 08:08:03 51°24.023 2°56.514 24 12.7 23 17
2008-05-27 08:08:08 51°24.039 2°56.524 24.2 12.7 23 16.3
2008-05-27 08:08:12 51°24.052 2°56.533 23.5 12.5 24 17
2008-05-27 08:08:18 51°24.072 2°56.547 23.8 12.5 23 16.2
2008-05-27 08:08:23 51°24.087 2°56.557 24.3 12.5 22 17
2008-05-27 08:08:28 51°24.103 2°56.568 24.4 12.6 23 17.6
2008-05-27 08:08:33 51°24.12 2°56.578 23.9 12.7 22 17.1
2008-05-27 08:08:38 51°24.136 2°56.589 23.8 12.8 23 16.5
2008-05-27 08:08:43 51°24.153 2°56.6 24.2 12.8 22 15.7
2008-05-27 08:08:47 51°24.165 2°56.61 24.6 12.8 24 15.3
2008-05-27 08:08:52 51°24.182 2°56.621 25 12.9 22 16.6
2008-05-27 08:08:58 51°24.202 2°56.634 24.5 12.9 24 16
2008-05-27 08:09:03 51°24.218 2°56.645 24.6 13 23 17
2008-05-27 08:09:08 51°24.234 2°56.656 24.2 12.9 22 17.6
2008-05-27 08:09:12 51°24.248 2°56.664 23.6 12.8 22 17
2008-05-27 08:09:17 51°24.264 2°56.676 23.9 12.7 24 16.1
2008-05-27 08:09:23 51°24.284 2°56.689 24.1 12.7 23 15.4
2008-05-27 08:09:28 51°24.3 2°56.699 24.2 12.8 22 17.2
2008-05-27 08:09:32 51°24.313 2°56.708 23.7 12.8 23 18.4
2008-05-27 08:09:38 51°24.333 2°56.721 23.8 12.8 23 18.8
2008-05-27 08:09:43 51°24.35 2°56.732 23.5 13 22 18.7
2008-05-27 08:09:48 51°24.366 2°56.743 24.1 13 24 18
2008-05-27 08:09:52 51°24.379 2°56.752 24.5 12.9 23 17.1
2008-05-27 08:09:58 51°24.399 2°56.766 24.7 12.8 25 16.8
2008-05-27 08:10:03 51°24.415 2°56.778 24.6 12.9 23 17.8
2008-05-27 08:10:08 51°24.431 2°56.789 24.7 12.8 24 18.6
2008-05-27 08:10:12 51°24.444 2°56.799 25.2 12.7 25 18.8
2008-05-27 08:10:18 51°24.464 2°56.812 25.2 12.6 24 19.3
2008-05-27 08:10:23 51°24.48 2°56.823 24.7 12.7 22 19.8
2008-05-27 08:10:27 51°24.492 2°56.832 24 12.7 24 19.7
2008-05-27 08:10:32 51°24.508 2°56.843 24.2 12.7 24 19.6
2008-05-27 08:10:38 51°24.527 2°56.858 25 12.9 25 19.9
2008-05-27 08:10:43 51°24.543 2°56.87 24.7 13 25 20
2008-05-27 08:10:48 51°24.56 2°56.882 25 13 26 20.1
2008-05-27 08:10:52 51°24.573 2°56.891 24.7 13 24 20.1
2008-05-27 08:10:58 51°24.592 2°56.906 24.3 12.9 26 20
2008-05-27 08:11:03 51°24.608 2°56.917 23.9 12.9 23 20.3
2008-05-27 08:11:07 51°24.621 2°56.927 24.2 12.9 25 20.4
2008-05-27 08:11:12 51°24.638 2°56.938 24.1 12.9 23 20.8
2008-05-27 08:11:18 51°24.657 2°56.953 23.3 13 25 21.1
2008-05-27 08:11:23 51°24.674 2°56.964 23.6 12.9 22 21.1
2008-05-27 08:11:28 51°24.69 2°56.976 23 12.8 24 21.2
2008-05-27 08:11:32 51°24.703 2°56.985 23.5 12.8 24 21.4
2008-05-27 08:11:37 51°24.719 2°56.997 24.1 13 24 21.6
2008-05-27 08:11:43 51°24.739 2°57.011 23.6 13 24 21.7
2008-05-27 08:11:48 51°24.756 2°57.023 23.4 13 24 21.6
2008-05-27 08:11:52 51°24.769 2°57.032 22.7 13.1 24 22
2008-05-27 08:11:58 51°24.789 2°57.046 23 13 25 22
2008-05-27 08:12:03 51°24.805 2°57.057 23.1 12.8 23 22
2008-05-27 08:12:08 51°24.821 2°57.068 23.1 12.7 24 21.8
2008-05-27 08:12:12 51°24.834 2°57.078 23.2 12.6 25 22.1
2008-05-27 08:12:18 51°24.853 2°57.092 23.7 12.7 25 22.5
2008-05-27 08:12:23 51°24.869 2°57.103 23.6 12.8 24 22.7
2008-05-27 08:12:28 51°24.885 2°57.116 23.6 12.8 26 22.4
2008-05-27 08:12:32 51°24.898 2°57.125 24.6 12.5 24 22.2
2008-05-27 08:12:38 51°24.916 2°57.139 24.4 12.5 25 22.5
2008-05-27 08:12:43 51°24.932 2°57.151 24.5 12.7 25 22.9
2008-05-27 08:12:47 51°24.945 2°57.161 24.5 12.8 25 23
2008-05-27 08:12:53 51°24.964 2°57.175 24.7 12.8 25 23.3
2008-05-27 08:12:58 51°24.98 2°57.187 24.4 12.6 24 23
2008-05-27 08:13:03 51°24.996 2°57.198 24.5 12.6 25 23.3
2008-05-27 08:13:08 51°25.012 2°57.21 24.4 12.7 23 23.3
2008-05-27 08:13:12 51°25.026 2°57.22 24.6 12.8 25 23.6
2008-05-27 08:13:18 51°25.045 2°57.234 24.8 12.8 26 23.7
2008-05-27 08:13:23 51°25.061 2°57.246 24.9 12.6 25 23.9
2008-05-27 08:13:27 51°25.074 2°57.256 25 12.7 26 23.6
2008-05-27 08:13:32 51°25.089 2°57.267 24.6 12.6 24 23.9
2008-05-27 08:13:38 51°25.108 2°57.282 24.7 12.6 26 23.8
2008-05-27 08:13:43 51°25.124 2°57.293 24.5 12.7 23 24
2008-05-27 08:13:48 51°25.14 2°57.306 24.4 12.7 26 24.3
2008-05-27 08:13:52 51°25.153 2°57.315 24.6 12.7 24 24.4
2008-05-27 08:13:58 51°25.173 2°57.33 24.7 12.7 26 24.8
2008-05-27 08:14:03 51°25.188 2°57.342 25.1 12.4 26 24.9
2008-05-27 08:14:08 51°25.204 2°57.354 25.9 12.5 27 24.3
2008-05-27 08:14:12 51°25.216 2°57.364 25.5 12.5 25 24.7
2008-05-27 08:14:18 51°25.236 2°57.378 25.3 12.7 25 25.1
2008-05-27 08:14:23 51°25.251 2°57.39 25 12.7 25 25.2
2008-05-27 08:14:28 51°25.267 2°57.402 25.2 12.8 25 25.1
2008-05-27 08:14:32 51°25.28 2°57.412 24.8 12.9 24 25.5
2008-05-27 08:14:38 51°25.3 2°57.426 25 13 25 25.6
2008-05-27 08:14:43 51°25.316 2°57.438 24.9 12.9 25 25.2
2008-05-27 08:14:47 51°25.329 2°57.448 24.5 13 24 25.6
2008-05-27 08:14:52 51°25.345 2°57.46 24 13 25 25.4
2008-05-27 08:14:58 51°25.365 2°57.474 24.3 12.8 25 25.7
2008-05-27 08:15:03 51°25.381 2°57.486 24.4 13 25 25.3
2008-05-27 08:15:08 51°25.397 2°57.498 24.4 13 25 25.6
2008-05-27 08:15:13 51°25.413 2°57.51 25.1 12.8 25 25.1
2008-05-27 08:15:18 51°25.429 2°57.521 24.4 12.8 24 25.2
2008-05-27 08:15:23 51°25.445 2°57.533 24.8 12.8 26 25.2
2008-05-27 08:15:28 51°25.461 2°57.545 25 12.8 25 25.1
2008-05-27 08:15:32 51°25.475 2°57.555 24.6 13 25 25.3
2008-05-27 08:15:38 51°25.494 2°57.569 25.1 13 24 25.3
2008-05-27 08:15:43 51°25.511 2°57.582 25.2 13.2 25 25.4
2008-05-27 08:15:47 51°25.524 2°57.591 25.3 13 25 25.2
2008-05-27 08:15:52 51°25.54 2°57.603 25.3 12.8 25 25
2008-05-27 08:15:58 51°25.56 2°57.618 25.8 12.9 25 24.9
2008-05-27 08:16:03 51°25.576 2°57.63 25.2 12.9 24 24.8
2008-05-27 08:16:08 51°25.592 2°57.641 24.2 12.8 24 24.9
2008-05-27 08:16:12 51°25.605 2°57.651 24.7 13 24 25.1
2008-05-27 08:16:18 51°25.625 2°57.665 24 12.8 23 24.9
2008-05-27 08:16:23 51°25.641 2°57.677 24.5 13 24 25.2
2008-05-27 08:16:28 51°25.658 2°57.687 23.6 12.8 23 25.2
2008-05-27 08:16:32 51°25.671 2°57.697 23.9 12.8 25 25
2008-05-27 08:16:38 51°25.69 2°57.711 23.2 12.9 24 25.2
2008-05-27 08:16:43 51°25.707 2°57.721 23.6 12.8 23 25
2008-05-27 08:16:48 51°25.723 2°57.732 23.5 12.9 22 24.9
2008-05-27 08:16:52 51°25.736 2°57.741 23.7 12.8 24 24.9
2008-05-27 08:16:58 51°25.755 2°57.755 23.9 12.5 23 24.9
2008-05-27 08:17:03 51°25.771 2°57.766 24.6 12.7 24 24.4
2008-05-27 08:17:07 51°25.784 2°57.774 23.8 12.7 23 24.2
2008-05-27 08:17:12 51°25.8 2°57.786 24.6 12.8 24 24.3
2008-05-27 08:17:18 51°25.82 2°57.799 24.1 12.9 22 24.3
2008-05-27 08:17:23 51°25.836 2°57.81 24.2 12.8 24 24.2
2008-05-27 08:17:28 51°25.852 2°57.822 23.9 12.8 24 24
2008-05-27 08:17:32 51°25.865 2°57.831 24.4 12.7 24 23.6
2008-05-27 08:17:38 51°25.885 2°57.845 24.5 12.8 24 23.6
2008-05-27 08:17:43 51°25.901 2°57.856 24.2 12.9 23 23.5
2008-05-27 08:17:48 51°25.917 2°57.868 24.2 12.9 24 23.4
2008-05-27 08:17:52 51°25.931 2°57.877 24 12.7 23 23.1
2008-05-27 08:17:58 51°25.95 2°57.89 24.1 12.9 23 23.1
2008-05-27 08:18:03 51°25.967 2°57.902 24.3 12.8 24 23
2008-05-27 08:18:08 51°25.983 2°57.913 23.9 12.8 24 22.9
2008-05-27 08:18:12 51°25.996 2°57.922 23.9 12.9 24 23
2008-05-27 08:18:18 51°26.016 2°57.936 24.2 13 24 23.3
2008-05-27 08:18:23 51°26.032 2°57.947 24.5 12.8 24 22.5
2008-05-27 08:18:28 51°26.047 2°57.958 24 12.1 24 21.1
2008-05-27 08:18:33 51°26.063 2°57.969 24.2 12.2 24 21.5
2008-05-27 08:18:38 51°26.079 2°57.98 24.5 12.4 23 21.6
2008-05-27 08:18:43 51°26.094 2°57.992 24.3 12.5 25 22
2008-05-27 08:18:48 51°26.11 2°58.003 24 12.7 24 21.8
2008-05-27 08:18:53 51°26.127 2°58.015 23.9 12.7 25 21.8
2008-05-27 08:18:58 51°26.143 2°58.026 24.2 12.8 23 21.6
2008-05-27 08:19:03 51°26.159 2°58.038 24.1 12.8 24 19.4
2008-05-27 08:19:08 51°26.176 2°58.049 24.8 13.1 25 20.6